Tropical Cyclones
[Index]
Main Index Home Page Stock Weather Photos Extreme Storms Discussion Storm News and Storm Chasing Reports Tropical Cyclones / Hurricanes / Typhoons Weather Data and Links Wild Fires / Bushfires Weather Observation Techniques Weather Picture Catalogue Tornado Pictures and Reports Stock Video Footage and DVDs for sale
Season 1998-1999 Tropical Cyclone DAVINA Track Map
Season 1998-1999 Summaries (Operational Data): [AU] [SIO] [SPAC] [SH]
<<- Previous TC | 1998-1999 Season | Next TC ->>

click for intensity scale information  Lat/long Grid: Show Hide

 Date Labels: Show Hide

Operational Tropical Cyclone Data : JTWC Advisories

Name: DAVINA
Number: 9925

01 Mar 1999 06:00 UTC to 19 Mar 1999 12:00 UTC

    date/time    lat    long     hPa   cat  kts
1999-03-01 06   10.7    88.5    1003                     
1999-03-01 18   10.8    88.8                             
1999-03-02 06    9.5    89.6    1001         20          
1999-03-02 12    9.7    90.2     999         25          
1999-03-02 18   10.0    90.7     999         25          
1999-03-03 00   10.2    91.2     999         25          
1999-03-03 06   10.6    90.9     999         25          
1999-03-03 12   11.2    90.6     998         25          
1999-03-03 18   11.7    90.0     996         30          
1999-03-04 00   11.8    89.6     995         30          
1999-03-04 06   12.1    88.7     994         32          
1999-03-04 12   12.4    87.5     991    1    35          
1999-03-04 18   12.7    86.1     988    1    40          
1999-03-05 00   13.0    84.7     983    1    45          
1999-03-05 06   13.4    83.5     978    2    50          
1999-03-05 12   13.9    82.6     965    2    60          
1999-03-05 18   14.4    81.2     955    3    70          
1999-03-06 00   14.7    79.8     945    3    80          
1999-03-06 06   15.0    78.4     945    3    80          
1999-03-06 12   15.4    77.1     945    3    80          
1999-03-06 18   15.9    75.4     950    3    75          
1999-03-07 00   16.3    73.9     945    3    80          
1999-03-07 06   16.5    72.3     938    3    85          
1999-03-07 12   16.8    70.7     930    4    90          
1999-03-07 18   17.0    69.2     930    4    90          
1999-03-08 00   17.3    67.4     930    4    90          
1999-03-08 06   17.5    65.9     940    3    85          
1999-03-08 12   17.8    64.4     950    3    75          
1999-03-08 18   18.4    63.1     955    3    70          
1999-03-09 00   19.0    61.6     960    3    65          
1999-03-09 06   19.5    60.0     955    3    70          
1999-03-09 12   20.0    58.7     955    3    70          
1999-03-09 18   20.7    57.6     955    3    70          
1999-03-10 00   21.1    56.6     967    2    60          
1999-03-10 06   21.8    55.4     974    2    55          
1999-03-10 12   22.1    54.4     978    2    50          
1999-03-10 18   22.3    53.6     983    1    45          
1999-03-11 00   22.4    53.2     983    1    45          
1999-03-11 06   22.9    52.7     983    1    45          
1999-03-11 12   23.0    52.6     983    1    45          
1999-03-11 18   23.1    52.5     983    1    45          
1999-03-12 00   23.3    52.4     985    1    43          
1999-03-12 06   23.0    52.4     987    1    40          
1999-03-12 12   22.9    52.4     990    1    35          
1999-03-12 18   22.3    52.5     995         30          
1999-03-13 00   22.1    52.6     997         30          
1999-03-13 06   22.0    52.8    1000         25          
1999-03-13 12   22.1    52.9    1000         25          
1999-03-13 18   22.0    53.0    1000         25          
1999-03-14 00   21.6    52.8    1000         25          
1999-03-14 06   21.5    52.8    1000         25          
1999-03-14 12   21.5    52.6    1000         25          
1999-03-14 18   20.9    51.6    1002         20          
1999-03-15 00   20.5    51.0    1002         20          
1999-03-15 06   20.3    50.2    1002         20          
1999-03-15 12   20.0    49.9    1002         20          
1999-03-15 18   19.9    49.6    1003         20          
1999-03-16 00   19.9    49.3    1003         20          
1999-03-16 06   20.2    49.3    1004         15          
1999-03-16 12   20.5    49.3    1004         15          
1999-03-16 18   20.7    49.3    1004         15          
1999-03-17 00   20.8    49.3    1004         15          
1999-03-17 06   20.9    49.4    1004         15          
1999-03-17 12   20.7    49.5    1004         15          
1999-03-17 18   20.6    49.8    1004         15          
1999-03-18 00   20.9    50.1    1005         15          
1999-03-18 06   21.3    50.5    1005         15          
1999-03-18 12   21.4    50.9    1005         15          
1999-03-18 18   21.0    50.9    1005         15          
1999-03-19 00   20.4    51.0    1006         15          
1999-03-19 06   19.7    51.1    1006         15          
1999-03-19 12   19.0    51.1    1006         15          
Winds are 10-min average.

Tropical cyclone tracks developed by Michael Bath using operational warnings and advisories and Google Maps.


[Australian Severe Weather index] [Copyright Notice] [Email Contacts] [Search This Site] [Privacy Policy]
Document: tropical_cyclone_davina.htm Updated: 28 May 2013